Time;durP1;ratioP1;P1;durP2;ratioP2;P2;SDS_P1;SDS_P2;PMS_P1;PMS_P2;Temp;Humidity;BMP_temperature;BMP_pressure;BME280_temperature;BME280_humidity;BME280_pressure;Samples;Min_cycle;Max_cycle;Signal;HPM_P1;HPM_P2
2022/11/24 00:01:40;;;;;;;19.33;4.53;;;6.70;99.90;;;;;;7382741;32;20119;-59
2022/11/24 00:05:42;;;;;;;14.50;3.80;;;6.60;99.90;;;;;;7370261;32;20256;-59
2022/11/24 00:09:44;;;;;;;14.95;4.45;;;6.50;99.90;;;;;;7372460;32;20099;-58
2022/11/24 00:13:46;;;;;;;16.15;3.87;;;6.50;99.90;;;;;;7376127;32;20596;-59
2022/11/24 00:17:47;;;;;;;15.18;3.80;;;6.40;99.90;;;;;;7374175;32;20490;-59
2022/11/24 00:21:49;;;;;;;21.40;3.80;;;6.40;99.90;;;;;;7366493;32;20304;-58
2022/11/24 00:25:51;;;;;;;14.90;3.42;;;6.30;99.90;;;;;;7370770;32;20110;-59
2022/11/24 00:29:52;;;;;;;17.83;3.65;;;6.30;99.90;;;;;;7372539;32;20094;-59
2022/11/24 00:33:57;;;;;;;19.62;4.20;;;6.20;99.90;;;;;;7375741;32;20154;-59
2022/11/24 00:37:58;;;;;;;13.82;3.87;;;6.10;99.90;;;;;;7374772;32;20109;-59
2022/11/24 00:42:00;;;;;;;17.35;4.00;;;6.20;99.90;;;;;;7380732;32;20123;-59
2022/11/24 00:46:02;;;;;;;19.30;4.32;;;6.10;99.90;;;;;;7369420;32;20119;-58
2022/11/24 00:50:05;;;;;;;15.60;3.83;;;6.10;99.90;;;;;;7383146;32;20194;-59
2022/11/24 00:54:06;;;;;;;13.55;3.40;;;6.10;99.90;;;;;;7372811;32;20194;-59
2022/11/24 00:58:08;;;;;;;12.98;3.97;;;6.10;99.90;;;;;;7370042;32;20125;-59
2022/11/24 01:02:10;;;;;;;22.80;4.25;;;6.10;99.90;;;;;;7367726;32;20527;-59
2022/11/24 01:06:15;;;;;;;11.65;3.60;;;6.10;99.90;;;;;;7374824;32;20568;-59
2022/11/24 01:10:17;;;;;;;16.52;4.15;;;6.10;99.90;;;;;;7370881;32;20235;-59
2022/11/24 01:14:21;;;;;;;14.85;3.72;;;6.10;99.90;;;;;;7372039;32;20107;-59
2022/11/24 01:18:22;;;;;;;17.73;3.97;;;6.00;99.90;;;;;;7369142;32;21466;-59
2022/11/24 01:22:26;;;;;;;20.35;4.00;;;5.90;99.90;;;;;;7377100;32;20827;-59
2022/11/24 01:26:27;;;;;;;14.05;4.32;;;5.90;99.90;;;;;;7368257;32;20179;-60
2022/11/24 01:30:29;;;;;;;24.60;3.67;;;5.90;99.90;;;;;;7378547;32;20102;-58
2022/11/24 01:34:31;;;;;;;27.37;4.32;;;5.90;99.90;;;;;;7375270;32;20135;-58
2022/11/24 01:38:33;;;;;;;19.90;4.05;;;6.00;99.90;;;;;;7374622;32;20146;-60
2022/11/24 01:42:49;;;;;;;18.30;3.58;;;6.00;99.90;;;;;;7375526;32;20134;-59
2022/11/24 01:46:57;;;;;;;19.45;3.37;;;6.10;99.90;;;;;;7374728;32;20129;-58
2022/11/24 01:51:23;;;;;;;17.23;3.47;;;6.20;99.90;;;;;;7368889;32;20153;-59
2022/11/24 01:55:33;;;;;;;16.10;3.15;;;6.20;99.90;;;;;;7374999;32;20133;-58
2022/11/24 01:59:35;;;;;;;17.83;4.12;;;6.20;99.90;;;;;;7383539;32;20103;-58
2022/11/24 02:03:40;;;;;;;14.73;3.60;;;6.30;99.90;;;;;;7380151;32;20253;-60
2022/11/24 02:07:42;;;;;;;19.33;3.17;;;6.40;99.90;;;;;;7382778;32;20134;-59
2022/11/24 02:11:46;;;;;;;20.70;3.55;;;6.40;99.90;;;;;;7378522;32;20123;-58
2022/11/24 02:15:47;;;;;;;15.50;3.12;;;6.50;99.90;;;;;;7369025;32;20258;-59
2022/11/24 02:20:02;;;;;;;18.65;3.42;;;6.50;99.90;;;;;;7380967;32;20110;-58
2022/11/24 02:24:36;;;;;;;17.33;3.97;;;6.50;99.90;;;;;;7376218;32;20128;-58
2022/11/24 02:28:38;;;;;;;19.55;3.28;;;6.50;99.90;;;;;;7360609;32;20209;-59
2022/11/24 02:32:41;;;;;;;19.40;3.60;;;6.60;99.90;;;;;;7372130;32;20133;-58
2022/11/24 02:36:43;;;;;;;18.55;3.40;;;6.70;99.90;;;;;;7381468;32;20133;-59
2022/11/24 02:40:48;;;;;;;13.48;2.47;;;6.70;99.90;;;;;;7377083;32;20133;-58
2022/11/24 02:44:56;;;;;;;20.92;3.00;;;6.80;99.90;;;;;;7374563;32;20115;-58
2022/11/24 02:48:58;;;;;;;19.67;3.08;;;6.90;99.90;;;;;;7375439;32;20827;-59
2022/11/24 02:53:00;;;;;;;16.27;2.85;;;7.00;99.90;;;;;;7367994;32;20541;-59
2022/11/24 02:57:02;;;;;;;17.30;2.50;;;7.00;99.90;;;;;;7376122;32;20129;-59
2022/11/24 03:01:04;;;;;;;14.20;2.70;;;7.10;99.90;;;;;;7377592;32;20504;-59
2022/11/24 03:05:06;;;;;;;18.42;2.97;;;7.20;99.90;;;;;;7375891;32;20115;-59
2022/11/24 03:09:10;;;;;;;15.27;2.45;;;7.20;99.90;;;;;;7372849;32;20102;-59
2022/11/24 03:13:11;;;;;;;18.25;3.12;;;7.20;99.90;;;;;;7381173;32;20103;-59
2022/11/24 03:17:13;;;;;;;17.85;2.50;;;7.30;99.90;;;;;;7374982;32;20173;-58
2022/11/24 03:21:15;;;;;;;15.02;2.97;;;7.20;99.90;;;;;;7382978;32;20107;-58
2022/11/24 03:25:17;;;;;;;17.23;2.80;;;7.40;99.90;;;;;;7383735;32;20133;-59
2022/11/24 03:29:19;;;;;;;17.80;2.67;;;7.40;99.90;;;;;;7386137;32;20575;-59
2022/11/24 03:33:21;;;;;;;17.00;3.05;;;7.30;99.90;;;;;;7377215;32;20512;-59
2022/11/24 03:37:22;;;;;;;17.33;2.28;;;7.20;99.90;;;;;;7380219;32;20130;-59
2022/11/24 03:41:24;;;;;;;20.67;2.80;;;7.20;99.90;;;;;;7381256;32;20103;-59
2022/11/24 03:45:26;;;;;;;12.60;2.40;;;7.40;99.90;;;;;;7379014;32;20693;-59
2022/11/24 03:49:46;;;;;;;15.57;2.67;;;7.40;99.90;;;;;;7381775;32;20138;-59
2022/11/24 03:53:48;;;;;;;17.70;2.85;;;7.40;99.90;;;;;;7380210;32;20257;-59
2022/11/24 03:57:49;;;;;;;13.62;2.28;;;7.40;99.90;;;;;;7374834;32;20616;-59
2022/11/24 04:01:51;;;;;;;17.02;2.37;;;7.50;99.90;;;;;;7378356;32;20133;-59
2022/11/24 04:05:53;;;;;;;16.27;2.40;;;7.50;99.90;;;;;;7381338;32;20203;-59
2022/11/24 04:09:54;;;;;;;22.75;2.92;;;7.50;99.90;;;;;;7382511;32;20134;-58
2022/11/24 04:13:56;;;;;;;16.00;2.33;;;7.60;99.90;;;;;;7382105;32;20107;-59
2022/11/24 04:17:58;;;;;;;15.88;2.55;;;7.70;99.90;;;;;;7381134;32;20190;-59
2022/11/24 04:21:59;;;;;;;13.68;3.05;;;7.80;99.90;;;;;;7372009;32;20559;-59
2022/11/24 04:26:01;;;;;;;18.75;3.28;;;7.80;99.90;;;;;;7374187;32;20108;-59
2022/11/24 04:30:05;;;;;;;18.17;3.25;;;7.90;99.90;;;;;;7381794;32;20195;-59
2022/11/24 04:34:07;;;;;;;19.60;2.85;;;7.80;99.90;;;;;;7374473;32;20133;-59
2022/11/24 04:38:08;;;;;;;14.45;2.28;;;7.80;99.90;;;;;;7378782;32;20190;-59
2022/11/24 04:42:10;;;;;;;15.95;2.90;;;7.70;99.90;;;;;;7378957;32;20099;-59
2022/11/24 04:46:12;;;;;;;21.27;3.33;;;7.80;99.90;;;;;;7379520;32;20843;-59
2022/11/24 04:50:14;;;;;;;12.52;2.62;;;7.90;99.90;;;;;;7375540;32;20099;-59
2022/11/24 04:54:15;;;;;;;21.27;3.30;;;7.80;99.90;;;;;;7377138;32;20115;-59
2022/11/24 04:58:17;;;;;;;25.60;3.37;;;7.80;99.90;;;;;;7367266;32;20538;-60
2022/11/24 05:02:19;;;;;;;21.17;3.35;;;7.90;99.90;;;;;;7375199;32;20225;-60
2022/11/24 05:06:22;;;;;;;23.92;4.07;;;7.90;99.90;;;;;;7374628;32;20540;-59
2022/11/24 05:10:36;;;;;;;17.10;3.45;;;7.90;99.90;;;;;;7374754;32;20122;-59
2022/11/24 05:14:37;;;;;;;22.20;2.95;;;7.90;99.90;;;;;;7379774;32;20111;-59
2022/11/24 05:18:39;;;;;;;20.35;3.33;;;7.90;99.90;;;;;;7368532;32;20193;-59
2022/11/24 05:22:41;;;;;;;22.55;3.50;;;7.80;99.90;;;;;;7381655;32;20182;-59
2022/11/24 05:26:42;;;;;;;21.73;3.22;;;7.80;99.90;;;;;;7375969;32;20549;-59
2022/11/24 05:30:44;;;;;;;22.27;3.60;;;7.80;99.90;;;;;;7374649;32;20726;-59
2022/11/24 05:34:46;;;;;;;15.38;3.15;;;7.90;99.90;;;;;;7378215;32;20111;-59
2022/11/24 05:38:48;;;;;;;25.98;3.35;;;7.90;99.90;;;;;;7370837;32;20103;-59
2022/11/24 05:42:50;;;;;;;23.52;3.60;;;7.90;99.90;;;;;;7380371;32;20500;-59
2022/11/24 05:46:51;;;;;;;23.60;3.42;;;8.00;99.90;;;;;;7376490;32;20099;-59
2022/11/24 05:50:54;;;;;;;20.05;3.67;;;8.00;99.90;;;;;;7372876;32;20122;-59
2022/11/24 05:54:56;;;;;;;24.87;4.03;;;8.00;99.90;;;;;;7376879;32;20102;-59
2022/11/24 05:58:58;;;;;;;17.08;2.92;;;8.00;99.90;;;;;;7373655;32;20236;-59
2022/11/24 06:03:00;;;;;;;50.60;19.48;;;7.90;99.90;;;;;;7369194;32;20634;-59
2022/11/24 06:07:03;;;;;;;22.40;3.75;;;7.90;99.90;;;;;;7373110;32;20635;-59
2022/11/24 06:11:16;;;;;;;22.33;3.50;;;7.80;99.90;;;;;;7374502;32;20145;-58
2022/11/24 06:15:18;;;;;;;19.27;3.05;;;7.70;99.90;;;;;;7374829;32;20263;-60
2022/11/24 06:19:20;;;;;;;23.62;3.25;;;7.70;99.90;;;;;;7375455;32;20236;-58
2022/11/24 06:23:21;;;;;;;21.20;3.55;;;7.80;99.90;;;;;;7378281;32;20491;-59
2022/11/24 06:27:23;;;;;;;22.87;3.30;;;7.80;99.90;;;;;;7378966;32;20221;-59
2022/11/24 06:31:25;;;;;;;22.83;3.20;;;7.70;99.90;;;;;;7375446;32;20282;-59
2022/11/24 06:35:27;;;;;;;20.73;3.05;;;7.80;99.90;;;;;;7373419;32;20205;-58
2022/11/24 06:39:28;;;;;;;14.80;2.75;;;7.80;99.90;;;;;;7367770;32;20142;-59
2022/11/24 06:43:30;;;;;;;23.65;3.00;;;7.90;99.90;;;;;;7367204;32;20666;-60
2022/11/24 06:47:32;;;;;;;11.98;2.42;;;7.90;99.90;;;;;;7371259;32;20126;-59
2022/11/24 06:51:34;;;;;;;13.32;2.87;;;7.90;99.90;;;;;;7364107;32;20114;-59
2022/11/24 06:55:35;;;;;;;10.63;2.12;;;7.90;99.90;;;;;;7368839;32;20128;-59
2022/11/24 06:59:37;;;;;;;9.68;2.12;;;7.90;99.90;;;;;;7372705;32;20194;-60
2022/11/24 07:03:38;;;;;;;10.45;1.98;;;8.00;99.90;;;;;;7368704;32;20118;-59
2022/11/24 07:07:40;;;;;;;15.85;1.80;;;8.10;99.90;;;;;;7369833;32;20183;-63
2022/11/24 07:11:42;;;;;;;10.75;1.87;;;8.10;99.90;;;;;;7372876;32;20585;-61
2022/11/24 07:15:44;;;;;;;10.68;2.87;;;8.10;99.90;;;;;;7368016;32;20130;-63
2022/11/24 07:19:46;;;;;;;11.07;1.48;;;7.90;99.90;;;;;;7378550;32;20130;-62
2022/11/24 07:23:49;;;;;;;9.35;1.70;;;8.00;99.90;;;;;;7372143;32;20107;-60
2022/11/24 07:27:57;;;;;;;8.02;1.20;;;8.00;99.90;;;;;;7369957;32;20296;-62
2022/11/24 07:31:59;;;;;;;6.93;1.00;;;8.10;99.90;;;;;;7368178;32;20237;-62
2022/11/24 07:36:07;;;;;;;4.18;1.33;;;8.20;99.90;;;;;;7372321;32;20102;-61
2022/11/24 07:40:09;;;;;;;5.12;1.10;;;8.30;99.90;;;;;;7370518;32;20661;-62
2022/11/24 07:44:11;;;;;;;4.57;1.05;;;8.30;99.90;;;;;;7376256;32;20107;-62
2022/11/24 07:48:13;;;;;;;4.53;0.85;;;8.30;99.90;;;;;;7369456;32;20133;-62
2022/11/24 07:52:14;;;;;;;5.30;0.68;;;8.30;99.90;;;;;;7374140;32;20133;-62
2022/11/24 07:56:16;;;;;;;7.43;1.08;;;8.30;99.90;;;;;;7365489;32;20137;-62
2022/11/24 08:00:18;;;;;;;4.72;1.10;;;8.30;99.90;;;;;;7372678;32;20103;-64
2022/11/24 08:04:20;;;;;;;5.50;0.90;;;8.40;99.90;;;;;;7373455;32;20554;-63
2022/11/24 08:08:22;;;;;;;7.22;1.08;;;8.40;99.90;;;;;;7375788;32;20129;-62
2022/11/24 08:12:23;;;;;;;3.97;0.80;;;8.50;99.90;;;;;;7375041;32;20467;-62
2022/11/24 08:16:25;;;;;;;6.12;1.00;;;8.50;99.90;;;;;;7373516;32;20099;-62
2022/11/24 08:20:27;;;;;;;3.20;0.90;;;8.50;99.90;;;;;;7372444;32;20095;-61
2022/11/24 08:24:30;;;;;;;5.47;1.35;;;8.50;99.90;;;;;;7372757;32;20192;-63
2022/11/24 08:28:32;;;;;;;6.90;1.52;;;8.40;99.90;;;;;;7375083;32;20175;-62
2022/11/24 08:32:34;;;;;;;4.90;0.80;;;8.50;99.90;;;;;;7379176;32;20570;-63
2022/11/24 08:36:36;;;;;;;7.03;1.30;;;8.50;99.90;;;;;;7370191;32;20111;-63
2022/11/24 08:40:37;;;;;;;8.35;1.15;;;8.60;99.90;;;;;;7382439;32;20123;-64
2022/11/24 08:44:39;;;;;;;6.12;1.45;;;8.60;99.90;;;;;;7385752;32;20102;-63
2022/11/24 08:48:41;;;;;;;6.65;1.50;;;8.60;99.90;;;;;;7382878;32;20634;-63
2022/11/24 08:52:43;;;;;;;7.03;1.75;;;8.60;99.90;;;;;;7380160;32;20131;-63
2022/11/24 08:56:47;;;;;;;8.55;1.30;;;8.70;99.90;;;;;;7374481;32;20141;-65
2022/11/24 09:00:49;;;;;;;9.38;2.28;;;8.60;99.90;;;;;;7371408;32;20233;-64
2022/11/24 09:04:51;;;;;;;9.43;1.45;;;8.70;99.90;;;;;;7380249;32;20210;-63
2022/11/24 09:08:54;;;;;;;7.55;1.60;;;8.80;99.90;;;;;;7376240;32;20114;-62
2022/11/24 09:12:55;;;;;;;7.57;1.70;;;8.80;99.90;;;;;;7377609;32;20121;-62
2022/11/24 09:16:57;;;;;;;11.07;1.65;;;8.80;99.90;;;;;;7376491;32;20129;-65
2022/11/24 09:21:17;;;;;;;9.80;1.65;;;8.90;99.90;;;;;;7381281;32;20261;-64
2022/11/24 09:25:19;;;;;;;12.65;1.85;;;8.90;99.90;;;;;;7378299;32;20107;-62
2022/11/24 09:29:21;;;;;;;11.93;1.98;;;9.00;99.90;;;;;;7379280;32;20205;-64
2022/11/24 09:33:23;;;;;;;11.85;1.87;;;9.10;99.90;;;;;;7376936;32;20125;-62
2022/11/24 09:37:24;;;;;;;11.12;1.80;;;9.00;99.90;;;;;;7379305;32;20133;-63
2022/11/24 09:41:39;;;;;;;10.40;2.08;;;9.10;99.90;;;;;;7375121;32;20122;-62
2022/11/24 09:46:04;;;;;;;11.20;1.85;;;9.10;99.90;;;;;;7365556;32;20244;-62
2022/11/24 09:50:26;;;;;;;12.73;2.05;;;9.30;99.90;;;;;;7372672;32;20108;-63
2022/11/24 09:54:29;;;;;;;9.10;1.90;;;9.40;99.90;;;;;;7378281;32;20194;-62
2022/11/24 09:58:50;;;;;;;9.02;1.65;;;9.40;99.90;;;;;;7372110;32;20697;-62
2022/11/24 10:02:52;;;;;;;8.63;1.77;;;9.50;99.90;;;;;;7377912;32;20104;-61
2022/11/24 10:07:17;;;;;;;14.27;1.83;;;9.50;99.90;;;;;;7372733;32;20138;-63
2022/11/24 10:11:34;;;;;;;10.35;1.67;;;9.60;99.90;;;;;;7374889;32;20106;-62
2022/11/24 10:16:05;;;;;;;12.52;1.60;;;9.70;99.90;;;;;;7373053;32;21636;-63
2022/11/24 10:20:34;;;;;;;9.02;1.65;;;10.00;99.90;;;;;;7381064;32;20167;-64
2022/11/24 10:24:49;;;;;;;11.30;2.10;;;10.10;99.90;;;;;;7381853;32;20108;-63
2022/11/24 10:28:55;;;;;;;8.77;1.67;;;10.30;99.90;;;;;;7380346;32;20186;-64
2022/11/24 10:33:01;;;;;;;8.85;1.95;;;10.30;99.90;;;;;;7375837;32;20107;-63
2022/11/24 10:37:26;;;;;;;9.40;2.13;;;10.20;99.90;;;;;;7368457;32;20138;-63
2022/11/24 10:41:45;;;;;;;9.20;1.50;;;10.40;99.90;;;;;;7354970;32;20137;-63
2022/11/24 10:45:47;;;;;;;12.13;2.30;;;10.40;99.90;;;;;;7371670;32;20107;-64
2022/11/24 10:50:04;;;;;;;10.93;1.55;;;10.40;99.90;;;;;;7377519;32;20110;-61
2022/11/24 10:54:14;;;;;;;10.30;1.77;;;10.40;99.90;;;;;;7374263;32;20130;-62
2022/11/24 10:58:16;;;;;;;12.05;2.55;;;10.30;99.90;;;;;;7376634;32;20122;-62
2022/11/24 11:02:29;;;;;;;8.93;1.80;;;10.20;99.90;;;;;;7367994;32;20176;-62
2022/11/24 11:06:31;;;;;;;8.57;1.85;;;10.00;99.90;;;;;;7374428;32;20209;-62
2022/11/24 11:10:33;;;;;;;10.70;1.67;;;10.10;99.90;;;;;;7371791;32;20153;-62
2022/11/24 11:14:34;;;;;;;9.45;1.75;;;10.20;99.90;;;;;;7379007;32;20129;-62
2022/11/24 11:18:36;;;;;;;8.57;2.05;;;10.20;99.90;;;;;;7379469;32;20108;-62
2022/11/24 11:22:41;;;;;;;10.95;2.03;;;10.10;99.90;;;;;;7376836;32;20164;-63
2022/11/24 11:26:43;;;;;;;11.38;1.73;;;10.10;99.90;;;;;;7369168;32;20156;-62
2022/11/24 11:31:15;;;;;;;12.05;2.25;;;10.20;99.90;;;;;;7381342;32;20123;-61
2022/11/24 11:35:23;;;;;;;18.23;2.15;;;10.20;99.90;;;;;;7375310;32;20126;-61
2022/11/24 11:39:35;;;;;;;16.30;2.15;;;10.20;99.90;;;;;;7377289;32;20118;-62
2022/11/24 11:43:44;;;;;;;12.18;1.83;;;10.20;99.90;;;;;;7381266;32;20170;-62
2022/11/24 11:48:01;;;;;;;7.25;1.73;;;10.30;99.90;;;;;;7387382;32;20519;-62
2022/11/24 11:52:41;;;;;;;14.25;2.25;;;10.40;99.90;;;;;;7382630;32;20196;-61
2022/11/24 11:56:45;;;;;;;11.90;2.47;;;10.40;99.90;;;;;;7385229;32;20106;-62
2022/11/24 12:01:12;;;;;;;12.43;2.60;;;10.30;99.90;;;;;;7379754;32;20111;-63
2022/11/24 12:05:41;;;;;;;14.23;2.20;;;10.30;99.90;;;;;;7379655;32;20712;-62
2022/11/24 12:10:02;;;;;;;12.63;2.30;;;10.40;99.90;;;;;;7379372;32;20116;-63
2022/11/24 12:14:31;;;;;;;12.93;2.15;;;10.60;99.90;;;;;;7377875;32;20137;-62
2022/11/24 12:19:02;;;;;;;11.68;2.00;;;10.70;99.90;;;;;;7364312;32;20717;-63
2022/11/24 12:23:11;;;;;;;12.40;1.92;;;10.80;99.90;;;;;;7377069;32;20130;-63
2022/11/24 12:27:21;;;;;;;17.25;1.95;;;10.80;99.90;;;;;;7372065;32;20152;-62
2022/11/24 12:31:36;;;;;;;16.50;2.40;;;10.70;99.90;;;;;;7375932;32;20302;-63
2022/11/24 12:35:50;;;;;;;11.20;1.83;;;10.70;99.90;;;;;;7377007;32;20227;-64
2022/11/24 12:40:04;;;;;;;12.37;2.50;;;10.90;99.90;;;;;;7369332;32;20099;-63
2022/11/24 12:44:25;;;;;;;13.62;2.42;;;10.90;99.90;;;;;;7378591;32;20130;-63
2022/11/24 12:48:47;;;;;;;17.00;1.90;;;10.80;99.90;;;;;;7376535;32;20130;-64
2022/11/24 12:53:06;;;;;;;10.55;2.10;;;10.90;99.90;;;;;;7376598;32;20103;-63
2022/11/24 12:57:25;;;;;;;10.90;2.17;;;11.00;99.90;;;;;;7372584;32;20133;-63
2022/11/24 13:01:35;;;;;;;12.98;2.40;;;11.20;99.90;;;;;;7369279;32;20197;-62
2022/11/24 13:05:44;;;;;;;15.88;2.28;;;11.20;99.90;;;;;;7379096;32;20206;-64
2022/11/24 13:10:23;;;;;;;11.38;2.08;;;11.10;99.90;;;;;;7375250;32;20186;-63
2022/11/24 13:14:47;;;;;;;14.95;2.05;;;11.10;99.90;;;;;;7373675;32;20129;-63
2022/11/24 13:18:58;;;;;;;14.63;4.07;;;11.10;99.90;;;;;;7375284;32;20183;-64
2022/11/24 13:23:02;;;;;;;19.75;2.97;;;11.10;99.90;;;;;;7374676;32;20147;-64
2022/11/24 13:27:23;;;;;;;16.00;3.05;;;11.10;99.90;;;;;;7378941;32;20120;-63
2022/11/24 13:31:25;;;;;;;15.73;1.90;;;11.30;99.90;;;;;;7373835;32;20141;-64
2022/11/24 13:35:27;;;;;;;17.42;3.28;;;11.40;99.90;;;;;;7372032;32;20138;-63
2022/11/24 13:39:48;;;;;;;19.87;2.37;;;11.50;99.90;;;;;;7374184;32;20794;-63
2022/11/24 13:44:16;;;;;;;10.93;1.62;;;11.40;99.90;;;;;;7380345;32;20273;-62
2022/11/24 13:48:18;;;;;;;14.10;2.55;;;11.40;99.90;;;;;;7370927;32;20540;-63
2022/11/24 13:52:35;;;;;;;14.98;2.30;;;11.40;99.90;;;;;;7371309;32;20111;-63
2022/11/24 13:56:36;;;;;;;12.18;2.65;;;11.40;99.90;;;;;;7363747;32;20226;-63
2022/11/24 14:01:17;;;;;;;7.97;1.92;;;11.40;99.90;;;;;;7372078;32;20125;-64
2022/11/24 14:05:27;;;;;;;11.63;1.95;;;11.60;99.90;;;;;;7373755;32;20213;-63
2022/11/24 14:09:50;;;;;;;12.45;2.50;;;11.70;99.90;;;;;;7373369;32;20103;-63
2022/11/24 14:13:53;;;;;;;13.40;1.92;;;11.60;99.90;;;;;;7375454;32;20515;-63
2022/11/24 14:17:54;;;;;;;17.37;2.35;;;11.40;99.90;;;;;;7376894;32;20115;-63
2022/11/24 14:21:56;;;;;;;12.82;1.90;;;11.20;99.90;;;;;;7375482;32;20130;-63
2022/11/24 14:25:58;;;;;;;18.62;2.30;;;11.10;99.90;;;;;;7377637;32;20122;-63
2022/11/24 14:30:16;;;;;;;20.92;2.53;;;11.10;99.90;;;;;;7377475;32;20118;-64
2022/11/24 14:34:22;;;;;;;12.57;1.95;;;10.90;99.90;;;;;;7375989;32;20217;-59
2022/11/24 14:38:24;;;;;;;11.17;2.20;;;10.80;99.90;;;;;;7368697;32;20123;-58
2022/11/24 14:42:26;;;;;;;13.85;2.72;;;10.70;99.90;;;;;;7371593;32;20230;-62
2022/11/24 14:46:28;;;;;;;17.10;2.83;;;10.60;99.90;;;;;;7370186;32;20110;-62
2022/11/24 14:50:30;;;;;;;13.20;2.67;;;10.40;99.90;;;;;;7371573;32;20261;-62
2022/11/24 14:54:31;;;;;;;14.77;2.83;;;10.20;99.90;;;;;;7377596;32;20206;-62
2022/11/24 14:58:34;;;;;;;13.93;2.40;;;10.00;99.90;;;;;;7371844;32;20112;-60
2022/11/24 15:02:50;;;;;;;13.68;2.92;;;10.00;99.90;;;;;;7375314;32;20125;-61
2022/11/24 15:07:10;;;;;;;15.75;3.03;;;9.80;99.90;;;;;;7367527;32;20289;-61
2022/11/24 15:11:12;;;;;;;9.43;2.20;;;9.60;99.90;;;;;;7373525;32;20202;-61
2022/11/24 15:15:14;;;;;;;13.05;2.10;;;9.40;99.90;;;;;;7373031;32;20704;-63
2022/11/24 15:19:16;;;;;;;10.07;2.50;;;9.20;99.90;;;;;;7375818;32;20189;-63
2022/11/24 15:23:32;;;;;;;15.38;2.40;;;9.10;99.90;;;;;;7374364;32;20118;-63
2022/11/24 15:27:33;;;;;;;18.33;2.47;;;9.00;99.90;;;;;;7377742;32;20133;-62
2022/11/24 15:31:35;;;;;;;14.80;2.75;;;8.90;99.90;;;;;;7369144;32;20099;-63
2022/11/24 15:35:37;;;;;;;13.73;2.55;;;8.70;99.90;;;;;;7370800;32;20232;-63
2022/11/24 15:39:39;;;;;;;17.62;3.50;;;8.50;99.90;;;;;;7371052;32;20130;-62
2022/11/24 15:43:41;;;;;;;13.50;2.45;;;8.30;99.90;;;;;;7375810;32;20129;-60
2022/11/24 15:47:43;;;;;;;18.48;3.47;;;8.10;99.90;;;;;;7375438;32;20222;-60
2022/11/24 15:51:45;;;;;;;14.05;2.87;;;7.90;99.90;;;;;;7371506;32;20133;-60
2022/11/24 15:55:48;;;;;;;17.80;3.47;;;7.70;99.90;;;;;;7367274;32;20100;-59
2022/11/24 15:59:51;;;;;;;13.73;3.80;;;7.60;99.90;;;;;;7376493;32;20124;-60
2022/11/24 16:03:52;;;;;;;15.10;3.40;;;7.40;99.90;;;;;;7371393;32;20690;-60
2022/11/24 16:07:54;;;;;;;14.90;3.42;;;7.30;99.90;;;;;;7376480;32;20141;-60
2022/11/24 16:11:56;;;;;;;15.88;4.28;;;7.10;99.90;;;;;;7375203;32;20107;-61
2022/11/24 16:15:57;;;;;;;15.75;3.92;;;7.00;99.90;;;;;;7372721;32;20133;-61
2022/11/24 16:19:59;;;;;;;14.77;3.78;;;6.80;99.90;;;;;;7364354;32;20523;-60
2022/11/24 16:24:01;;;;;;;14.73;3.35;;;6.70;99.90;;;;;;7370866;32;20691;-58
2022/11/24 16:28:03;;;;;;;17.15;7.55;;;6.50;99.90;;;;;;7373015;32;20233;-58
2022/11/24 16:32:05;;;;;;;19.00;3.58;;;6.40;99.90;;;;;;7368980;32;20107;-58
2022/11/24 16:36:07;;;;;;;11.43;2.60;;;6.30;99.90;;;;;;7375171;32;20172;-59
2022/11/24 16:40:09;;;;;;;11.10;2.40;;;6.10;99.90;;;;;;7364583;32;20119;-59
2022/11/24 16:44:11;;;;;;;12.68;2.20;;;6.10;99.90;;;;;;7377226;32;20134;-59
2022/11/24 16:48:12;;;;;;;12.05;2.40;;;6.00;99.90;;;;;;7377654;32;20121;-59
2022/11/24 16:52:15;;;;;;;11.35;2.65;;;6.00;99.90;;;;;;7373762;32;20129;-59
2022/11/24 16:56:17;;;;;;;15.40;2.80;;;6.10;99.90;;;;;;7370969;32;20099;-60
2022/11/24 17:00:19;;;;;;;14.77;3.42;;;6.10;99.90;;;;;;7371349;32;20099;-58
2022/11/24 17:04:21;;;;;;;22.00;3.37;;;6.20;99.90;;;;;;7365451;32;20686;-59
2022/11/24 17:08:22;;;;;;;19.73;3.42;;;6.30;99.90;;;;;;7376928;32;20127;-59
2022/11/24 17:12:24;;;;;;;18.75;3.65;;;6.50;99.90;;;;;;7376480;32;20107;-60
2022/11/24 17:16:26;;;;;;;16.58;3.15;;;6.50;99.90;;;;;;7368234;32;20100;-59
2022/11/24 17:20:30;;;;;;;12.75;2.50;;;6.60;99.90;;;;;;7377175;32;20103;-60
2022/11/24 17:24:31;;;;;;;18.90;3.15;;;6.60;99.90;;;;;;7374958;32;20547;-59
2022/11/24 17:28:34;;;;;;;15.15;2.85;;;6.60;99.90;;;;;;7374998;32;20366;-59
2022/11/24 17:32:36;;;;;;;15.93;3.10;;;6.70;99.90;;;;;;7375702;32;20212;-59
2022/11/24 17:36:43;;;;;;;12.35;2.90;;;6.70;99.90;;;;;;7370681;32;20490;-59
2022/11/24 17:40:46;;;;;;;15.07;3.62;;;6.80;99.90;;;;;;7371119;32;20621;-60
2022/11/24 17:44:48;;;;;;;14.23;3.00;;;6.90;99.90;;;;;;7377724;32;20130;-60
2022/11/24 17:48:50;;;;;;;12.82;2.47;;;6.90;99.90;;;;;;7372705;32;20103;-60
2022/11/24 17:52:52;;;;;;;10.65;2.50;;;7.00;99.90;;;;;;7369008;32;20258;-60
2022/11/24 17:56:54;;;;;;;14.90;3.45;;;6.90;99.90;;;;;;7375666;32;20584;-60
2022/11/24 18:00:57;;;;;;;12.68;2.47;;;6.90;99.90;;;;;;7377356;32;20107;-59
2022/11/24 18:04:59;;;;;;;13.10;2.62;;;7.00;99.90;;;;;;7380164;32;20179;-59
2022/11/24 18:09:00;;;;;;;11.18;2.05;;;7.20;99.90;;;;;;7382705;32;20106;-59
2022/11/24 18:13:02;;;;;;;17.00;3.08;;;7.10;99.90;;;;;;7381138;32;20130;-60
2022/11/24 18:17:03;;;;;;;16.45;2.22;;;7.10;99.90;;;;;;7376521;32;21072;-59
2022/11/24 18:21:10;;;;;;;14.48;1.98;;;7.20;99.90;;;;;;7360778;32;20131;-59
2022/11/24 18:25:12;;;;;;;12.47;2.13;;;7.20;99.90;;;;;;7378040;32;20198;-60
2022/11/24 18:29:13;;;;;;;15.18;2.45;;;7.40;99.90;;;;;;7368764;32;20110;-60
2022/11/24 18:33:16;;;;;;;15.82;2.50;;;7.30;99.90;;;;;;7373095;32;20201;-60
2022/11/24 18:37:18;;;;;;;18.65;6.90;;;7.30;99.90;;;;;;7372938;32;20470;-60
2022/11/24 18:41:21;;;;;;;14.75;3.17;;;7.20;99.90;;;;;;7381800;32;20110;-60
2022/11/24 18:45:22;;;;;;;18.58;2.90;;;7.10;99.90;;;;;;7376127;32;20668;-60
2022/11/24 18:49:24;;;;;;;12.02;2.40;;;7.20;99.90;;;;;;7372286;32;20129;-60
2022/11/24 18:53:27;;;;;;;10.88;2.37;;;7.20;99.90;;;;;;7371551;32;20427;-60
2022/11/24 18:57:30;;;;;;;14.32;2.50;;;7.20;99.90;;;;;;7372001;32;20148;-61
2022/11/24 19:01:32;;;;;;;14.87;2.12;;;7.10;99.90;;;;;;7369214;32;20534;-60
2022/11/24 19:05:33;;;;;;;12.85;2.00;;;7.10;99.90;;;;;;7374138;32;20126;-60
2022/11/24 19:09:36;;;;;;;13.85;2.20;;;7.00;99.90;;;;;;7373924;32;20125;-60
2022/11/24 19:13:38;;;;;;;10.55;2.10;;;6.90;99.90;;;;;;7382192;32;20103;-61
2022/11/24 19:17:39;;;;;;;9.35;2.85;;;6.90;99.90;;;;;;7377210;32;20173;-59
2022/11/24 19:21:41;;;;;;;18.58;3.25;;;6.80;99.90;;;;;;7381282;32;20610;-59
2022/11/24 19:25:43;;;;;;;13.40;4.00;;;6.80;99.90;;;;;;7370953;32;20134;-59
2022/11/24 19:29:46;;;;;;;12.90;2.78;;;6.80;99.90;;;;;;7373740;32;20518;-60
2022/11/24 19:33:49;;;;;;;15.55;2.90;;;6.90;99.90;;;;;;7374344;32;20111;-59
2022/11/24 19:37:51;;;;;;;15.07;3.05;;;6.90;99.90;;;;;;7375861;32;20806;-59
2022/11/24 19:41:53;;;;;;;13.80;3.08;;;6.90;99.90;;;;;;7372563;32;20133;-58
2022/11/24 19:46:10;;;;;;;15.38;3.08;;;6.90;99.90;;;;;;7379709;32;20111;-58
2022/11/24 19:50:11;;;;;;;16.30;3.85;;;6.90;99.90;;;;;;7365930;32;20107;-59
2022/11/24 19:54:13;;;;;;;14.87;3.12;;;6.90;99.90;;;;;;7375072;32;20129;-59
2022/11/24 19:58:15;;;;;;;9.63;2.30;;;6.90;99.90;;;;;;7368248;32;20103;-59
2022/11/24 20:02:17;;;;;;;10.32;2.45;;;6.80;99.90;;;;;;7369704;32;20114;-58
2022/11/24 20:06:18;;;;;;;18.10;2.78;;;6.80;99.90;;;;;;7370261;32;20519;-59
2022/11/24 20:10:20;;;;;;;12.27;2.65;;;6.80;99.90;;;;;;7379680;32;20149;-59
2022/11/24 20:14:22;;;;;;;17.25;2.65;;;6.70;99.90;;;;;;7365646;32;20234;-60
2022/11/24 20:18:25;;;;;;;12.10;2.95;;;6.70;99.90;;;;;;7373067;32;20157;-61
2022/11/24 20:22:27;;;;;;;12.90;2.60;;;6.70;99.90;;;;;;7374584;32;20170;-59
2022/11/24 20:26:32;;;;;;;11.75;2.60;;;6.70;99.90;;;;;;7376375;32;20128;-60
2022/11/24 20:30:34;;;;;;;13.10;2.90;;;6.70;99.90;;;;;;7381986;32;20133;-59
2022/11/24 20:34:36;;;;;;;10.43;3.08;;;6.70;99.90;;;;;;7376561;32;20576;-59
2022/11/24 20:38:39;;;;;;;10.93;2.50;;;6.70;99.90;;;;;;7377192;32;20179;-60
2022/11/24 20:42:41;;;;;;;13.38;2.28;;;6.70;99.90;;;;;;7378089;32;20205;-61
2022/11/24 20:46:44;;;;;;;17.40;2.67;;;6.70;99.90;;;;;;7374990;32;20190;-60
2022/11/24 20:50:46;;;;;;;12.07;2.97;;;6.70;99.90;;;;;;7370938;32;20103;-60
2022/11/24 20:54:52;;;;;;;12.23;2.42;;;6.80;99.90;;;;;;7378790;32;20111;-60
2022/11/24 20:58:54;;;;;;;9.95;2.30;;;6.80;99.90;;;;;;7374916;32;20185;-60
2022/11/24 21:02:57;;;;;;;13.98;2.58;;;6.90;99.90;;;;;;7375517;32;20129;-60
2022/11/24 21:06:59;;;;;;;12.10;2.37;;;6.80;99.90;;;;;;7376663;32;20514;-60
2022/11/24 21:11:01;;;;;;;12.85;2.58;;;6.80;99.90;;;;;;7378920;32;20147;-58
2022/11/24 21:15:06;;;;;;;11.57;2.00;;;6.90;99.90;;;;;;7385107;32;20195;-59